sensor_id;sensor_type;location;lat;lon;timestamp;P1;durP1;ratioP1;P2;durP2;ratioP2
3257;SDS011;1641;51.306;12.384;2023-03-01T00:01:35;19.73;;;10.05;;
3257;SDS011;1641;51.306;12.384;2023-03-01T00:04:00;22.13;;;10.23;;
3257;SDS011;1641;51.306;12.384;2023-03-01T00:06:26;16.02;;;10.30;;
3257;SDS011;1641;51.306;12.384;2023-03-01T00:08:52;16.73;;;9.80;;
3257;SDS011;1641;51.306;12.384;2023-03-01T00:11:19;16.00;;;10.90;;
3257;SDS011;1641;51.306;12.384;2023-03-01T00:13:51;17.98;;;10.15;;
3257;SDS011;1641;51.306;12.384;2023-03-01T00:16:21;14.07;;;10.98;;
3257;SDS011;1641;51.306;12.384;2023-03-01T00:18:48;21.20;;;11.77;;
3257;SDS011;1641;51.306;12.384;2023-03-01T00:21:14;16.83;;;10.55;;
3257;SDS011;1641;51.306;12.384;2023-03-01T00:23:42;18.70;;;11.38;;
3257;SDS011;1641;51.306;12.384;2023-03-01T00:26:09;18.65;;;10.25;;
3257;SDS011;1641;51.306;12.384;2023-03-01T00:28:36;18.48;;;10.40;;
3257;SDS011;1641;51.306;12.384;2023-03-01T00:31:05;19.05;;;11.15;;
3257;SDS011;1641;51.306;12.384;2023-03-01T00:33:32;14.93;;;10.45;;
3257;SDS011;1641;51.306;12.384;2023-03-01T00:35:58;21.30;;;11.82;;
3257;SDS011;1641;51.306;12.384;2023-03-01T00:38:24;19.38;;;11.25;;
3257;SDS011;1641;51.306;12.384;2023-03-01T00:40:49;18.85;;;10.18;;
3257;SDS011;1641;51.306;12.384;2023-03-01T00:43:15;18.15;;;10.63;;
3257;SDS011;1641;51.306;12.384;2023-03-01T00:45:40;21.33;;;10.48;;
3257;SDS011;1641;51.306;12.384;2023-03-01T00:48:05;20.27;;;10.75;;
3257;SDS011;1641;51.306;12.384;2023-03-01T00:50:30;19.00;;;10.25;;
3257;SDS011;1641;51.306;12.384;2023-03-01T00:52:56;20.77;;;10.90;;
3257;SDS011;1641;51.306;12.384;2023-03-01T00:55:21;19.70;;;11.10;;
3257;SDS011;1641;51.306;12.384;2023-03-01T00:57:47;20.30;;;12.27;;
3257;SDS011;1641;51.306;12.384;2023-03-01T01:00:13;18.15;;;10.55;;
3257;SDS011;1641;51.306;12.384;2023-03-01T01:02:39;19.95;;;11.02;;
3257;SDS011;1641;51.306;12.384;2023-03-01T01:05:05;17.48;;;10.82;;
3257;SDS011;1641;51.306;12.384;2023-03-01T01:07:31;15.93;;;10.77;;
3257;SDS011;1641;51.306;12.384;2023-03-01T01:09:56;21.20;;;11.77;;
3257;SDS011;1641;51.306;12.384;2023-03-01T01:12:22;21.48;;;11.27;;
3257;SDS011;1641;51.306;12.384;2023-03-01T01:14:47;26.40;;;11.00;;
3257;SDS011;1641;51.306;12.384;2023-03-01T01:17:12;21.90;;;11.98;;
3257;SDS011;1641;51.306;12.384;2023-03-01T01:19:38;22.35;;;12.00;;
3257;SDS011;1641;51.306;12.384;2023-03-01T01:22:03;19.77;;;11.70;;
3257;SDS011;1641;51.306;12.384;2023-03-01T01:24:29;17.25;;;10.07;;
3257;SDS011;1641;51.306;12.384;2023-03-01T01:26:54;20.60;;;11.70;;
3257;SDS011;1641;51.306;12.384;2023-03-01T01:29:19;19.33;;;11.80;;
3257;SDS011;1641;51.306;12.384;2023-03-01T01:31:45;17.38;;;11.48;;
3257;SDS011;1641;51.306;12.384;2023-03-01T01:34:16;22.15;;;11.52;;
3257;SDS011;1641;51.306;12.384;2023-03-01T01:36:43;16.65;;;11.27;;
3257;SDS011;1641;51.306;12.384;2023-03-01T01:39:08;17.45;;;10.63;;
3257;SDS011;1641;51.306;12.384;2023-03-01T01:41:38;19.33;;;10.73;;
3257;SDS011;1641;51.306;12.384;2023-03-01T01:49:51;18.95;;;10.45;;
3257;SDS011;1641;51.306;12.384;2023-03-01T01:52:26;19.05;;;11.90;;
3257;SDS011;1641;51.306;12.384;2023-03-01T01:54:56;16.85;;;12.07;;
3257;SDS011;1641;51.306;12.384;2023-03-01T01:57:28;18.55;;;11.35;;
3257;SDS011;1641;51.306;12.384;2023-03-01T02:00:06;21.73;;;12.00;;
3257;SDS011;1641;51.306;12.384;2023-03-01T02:02:38;18.38;;;10.48;;
3257;SDS011;1641;51.306;12.384;2023-03-01T02:05:09;16.30;;;11.00;;
3257;SDS011;1641;51.306;12.384;2023-03-01T02:07:39;19.83;;;10.57;;
3257;SDS011;1641;51.306;12.384;2023-03-01T02:10:07;21.95;;;11.27;;
3257;SDS011;1641;51.306;12.384;2023-03-01T02:12:33;21.45;;;11.88;;
3257;SDS011;1641;51.306;12.384;2023-03-01T02:14:58;20.63;;;11.13;;
3257;SDS011;1641;51.306;12.384;2023-03-01T02:17:24;17.45;;;10.05;;
3257;SDS011;1641;51.306;12.384;2023-03-01T02:22:39;24.42;;;12.60;;
3257;SDS011;1641;51.306;12.384;2023-03-01T02:27:46;23.08;;;11.32;;
3257;SDS011;1641;51.306;12.384;2023-03-01T02:30:17;16.80;;;10.00;;
3257;SDS011;1641;51.306;12.384;2023-03-01T02:32:44;21.50;;;10.82;;
3257;SDS011;1641;51.306;12.384;2023-03-01T02:35:10;18.52;;;9.40;;
3257;SDS011;1641;51.306;12.384;2023-03-01T02:37:38;18.33;;;10.35;;
3257;SDS011;1641;51.306;12.384;2023-03-01T02:40:09;14.93;;;10.75;;
3257;SDS011;1641;51.306;12.384;2023-03-01T02:42:41;19.67;;;10.88;;
3257;SDS011;1641;51.306;12.384;2023-03-01T02:45:15;19.90;;;10.50;;
3257;SDS011;1641;51.306;12.384;2023-03-01T02:47:40;21.05;;;11.40;;
3257;SDS011;1641;51.306;12.384;2023-03-01T02:52:55;19.27;;;10.23;;
3257;SDS011;1641;51.306;12.384;2023-03-01T02:55:25;20.83;;;10.57;;
3257;SDS011;1641;51.306;12.384;2023-03-01T02:57:52;16.05;;;10.35;;
3257;SDS011;1641;51.306;12.384;2023-03-01T03:00:19;19.40;;;10.00;;
3257;SDS011;1641;51.306;12.384;2023-03-01T03:02:51;14.60;;;10.43;;
3257;SDS011;1641;51.306;12.384;2023-03-01T03:05:19;16.05;;;11.13;;
3257;SDS011;1641;51.306;12.384;2023-03-01T03:07:47;19.20;;;11.65;;
3257;SDS011;1641;51.306;12.384;2023-03-01T03:10:15;17.98;;;11.13;;
3257;SDS011;1641;51.306;12.384;2023-03-01T03:12:49;16.02;;;10.63;;
3257;SDS011;1641;51.306;12.384;2023-03-01T03:15:16;18.35;;;10.80;;
3257;SDS011;1641;51.306;12.384;2023-03-01T03:17:43;15.85;;;10.57;;
3257;SDS011;1641;51.306;12.384;2023-03-01T03:20:09;16.30;;;9.10;;
3257;SDS011;1641;51.306;12.384;2023-03-01T03:22:39;14.95;;;10.15;;
3257;SDS011;1641;51.306;12.384;2023-03-01T03:25:05;18.90;;;11.15;;
3257;SDS011;1641;51.306;12.384;2023-03-01T03:27:35;18.85;;;10.68;;
3257;SDS011;1641;51.306;12.384;2023-03-01T03:30:02;20.58;;;10.35;;
3257;SDS011;1641;51.306;12.384;2023-03-01T03:32:29;18.50;;;11.45;;
3257;SDS011;1641;51.306;12.384;2023-03-01T03:34:55;15.98;;;10.25;;
3257;SDS011;1641;51.306;12.384;2023-03-01T03:37:23;19.88;;;10.35;;
3257;SDS011;1641;51.306;12.384;2023-03-01T03:40:07;19.67;;;10.40;;
3257;SDS011;1641;51.306;12.384;2023-03-01T03:42:42;18.88;;;11.07;;
3257;SDS011;1641;51.306;12.384;2023-03-01T03:45:08;15.65;;;10.15;;
3257;SDS011;1641;51.306;12.384;2023-03-01T03:47:33;16.83;;;10.70;;
3257;SDS011;1641;51.306;12.384;2023-03-01T03:49:58;17.23;;;10.80;;
3257;SDS011;1641;51.306;12.384;2023-03-01T03:52:24;16.17;;;10.43;;
3257;SDS011;1641;51.306;12.384;2023-03-01T03:54:49;15.77;;;10.88;;
3257;SDS011;1641;51.306;12.384;2023-03-01T03:57:17;23.92;;;11.35;;
3257;SDS011;1641;51.306;12.384;2023-03-01T03:59:42;16.85;;;10.10;;
3257;SDS011;1641;51.306;12.384;2023-03-01T04:02:07;16.90;;;10.57;;
3257;SDS011;1641;51.306;12.384;2023-03-01T04:04:33;17.38;;;11.32;;
3257;SDS011;1641;51.306;12.384;2023-03-01T04:06:59;17.65;;;10.55;;
3257;SDS011;1641;51.306;12.384;2023-03-01T04:09:24;21.38;;;11.80;;
3257;SDS011;1641;51.306;12.384;2023-03-01T04:11:49;19.80;;;11.00;;
3257;SDS011;1641;51.306;12.384;2023-03-01T04:14:15;17.92;;;10.70;;
3257;SDS011;1641;51.306;12.384;2023-03-01T04:16:41;17.30;;;10.73;;
3257;SDS011;1641;51.306;12.384;2023-03-01T04:19:06;20.73;;;10.82;;
3257;SDS011;1641;51.306;12.384;2023-03-01T04:21:31;19.17;;;11.07;;
3257;SDS011;1641;51.306;12.384;2023-03-01T04:23:56;20.58;;;11.65;;
3257;SDS011;1641;51.306;12.384;2023-03-01T04:26:25;19.77;;;11.85;;
3257;SDS011;1641;51.306;12.384;2023-03-01T04:28:51;18.25;;;11.05;;
3257;SDS011;1641;51.306;12.384;2023-03-01T04:31:20;20.27;;;11.63;;
3257;SDS011;1641;51.306;12.384;2023-03-01T04:36:13;22.35;;;12.15;;
3257;SDS011;1641;51.306;12.384;2023-03-01T04:38:40;23.05;;;13.05;;
3257;SDS011;1641;51.306;12.384;2023-03-01T04:41:07;19.55;;;12.75;;
3257;SDS011;1641;51.306;12.384;2023-03-01T04:43:34;21.95;;;12.52;;
3257;SDS011;1641;51.306;12.384;2023-03-01T04:46:00;21.80;;;12.10;;
3257;SDS011;1641;51.306;12.384;2023-03-01T04:48:30;23.45;;;12.07;;
3257;SDS011;1641;51.306;12.384;2023-03-01T04:50:59;22.23;;;12.27;;
3257;SDS011;1641;51.306;12.384;2023-03-01T04:53:25;19.58;;;12.10;;
3257;SDS011;1641;51.306;12.384;2023-03-01T04:55:51;21.85;;;13.55;;
3257;SDS011;1641;51.306;12.384;2023-03-01T04:58:16;24.33;;;11.93;;
3257;SDS011;1641;51.306;12.384;2023-03-01T05:00:42;24.85;;;12.95;;
3257;SDS011;1641;51.306;12.384;2023-03-01T05:03:07;16.60;;;11.05;;
3257;SDS011;1641;51.306;12.384;2023-03-01T05:05:34;18.45;;;12.05;;
3257;SDS011;1641;51.306;12.384;2023-03-01T05:08:02;22.17;;;12.10;;
3257;SDS011;1641;51.306;12.384;2023-03-01T05:10:30;21.77;;;12.95;;
3257;SDS011;1641;51.306;12.384;2023-03-01T05:12:57;17.08;;;12.07;;
3257;SDS011;1641;51.306;12.384;2023-03-01T05:15:24;18.70;;;11.75;;
3257;SDS011;1641;51.306;12.384;2023-03-01T05:17:51;11.40;;;7.30;;
3257;SDS011;1641;51.306;12.384;2023-03-01T05:20:19;20.00;;;11.25;;
3257;SDS011;1641;51.306;12.384;2023-03-01T05:22:47;20.48;;;11.80;;
3257;SDS011;1641;51.306;12.384;2023-03-01T05:25:13;23.75;;;12.52;;
3257;SDS011;1641;51.306;12.384;2023-03-01T05:27:38;23.05;;;12.25;;
3257;SDS011;1641;51.306;12.384;2023-03-01T05:30:04;19.40;;;11.95;;
3257;SDS011;1641;51.306;12.384;2023-03-01T05:32:41;19.35;;;11.88;;
3257;SDS011;1641;51.306;12.384;2023-03-01T05:35:08;20.10;;;12.37;;
3257;SDS011;1641;51.306;12.384;2023-03-01T05:37:38;30.02;;;13.05;;
3257;SDS011;1641;51.306;12.384;2023-03-01T05:40:07;21.15;;;11.70;;
3257;SDS011;1641;51.306;12.384;2023-03-01T05:42:40;19.17;;;12.40;;
3257;SDS011;1641;51.306;12.384;2023-03-01T05:45:06;22.08;;;11.35;;
3257;SDS011;1641;51.306;12.384;2023-03-01T05:47:37;17.33;;;10.27;;
3257;SDS011;1641;51.306;12.384;2023-03-01T05:50:16;26.40;;;13.02;;
3257;SDS011;1641;51.306;12.384;2023-03-01T05:52:47;23.77;;;13.52;;
3257;SDS011;1641;51.306;12.384;2023-03-01T05:55:14;26.80;;;13.70;;
3257;SDS011;1641;51.306;12.384;2023-03-01T05:57:46;20.55;;;13.27;;
3257;SDS011;1641;51.306;12.384;2023-03-01T06:00:12;22.45;;;12.73;;
3257;SDS011;1641;51.306;12.384;2023-03-01T06:02:42;22.75;;;13.50;;
3257;SDS011;1641;51.306;12.384;2023-03-01T06:05:11;23.27;;;13.60;;
3257;SDS011;1641;51.306;12.384;2023-03-01T06:07:38;21.08;;;13.43;;
3257;SDS011;1641;51.306;12.384;2023-03-01T06:10:04;21.08;;;14.13;;
3257;SDS011;1641;51.306;12.384;2023-03-01T06:12:31;24.30;;;13.43;;
3257;SDS011;1641;51.306;12.384;2023-03-01T06:15:03;24.27;;;13.45;;
3257;SDS011;1641;51.306;12.384;2023-03-01T06:17:30;25.90;;;13.50;;
3257;SDS011;1641;51.306;12.384;2023-03-01T06:20:02;24.42;;;13.45;;
3257;SDS011;1641;51.306;12.384;2023-03-01T06:22:33;27.48;;;13.70;;
3257;SDS011;1641;51.306;12.384;2023-03-01T06:24:58;21.17;;;13.43;;
3257;SDS011;1641;51.306;12.384;2023-03-01T06:27:23;22.75;;;13.35;;
3257;SDS011;1641;51.306;12.384;2023-03-01T06:29:51;24.85;;;14.40;;
3257;SDS011;1641;51.306;12.384;2023-03-01T06:32:18;27.48;;;13.68;;
3257;SDS011;1641;51.306;12.384;2023-03-01T06:34:43;24.70;;;14.75;;
3257;SDS011;1641;51.306;12.384;2023-03-01T06:37:09;25.38;;;13.93;;
3257;SDS011;1641;51.306;12.384;2023-03-01T06:39:34;23.67;;;14.68;;
3257;SDS011;1641;51.306;12.384;2023-03-01T06:42:02;23.55;;;13.43;;
3257;SDS011;1641;51.306;12.384;2023-03-01T06:44:28;27.45;;;14.43;;
3257;SDS011;1641;51.306;12.384;2023-03-01T06:46:54;28.58;;;15.90;;
3257;SDS011;1641;51.306;12.384;2023-03-01T06:49:19;24.15;;;13.70;;
3257;SDS011;1641;51.306;12.384;2023-03-01T06:51:44;21.98;;;12.95;;
3257;SDS011;1641;51.306;12.384;2023-03-01T06:54:13;23.42;;;13.73;;
3257;SDS011;1641;51.306;12.384;2023-03-01T06:56:39;21.33;;;13.18;;
3257;SDS011;1641;51.306;12.384;2023-03-01T06:59:04;20.73;;;12.43;;
3257;SDS011;1641;51.306;12.384;2023-03-01T07:01:33;25.55;;;13.02;;
3257;SDS011;1641;51.306;12.384;2023-03-01T07:03:58;23.92;;;13.27;;
3257;SDS011;1641;51.306;12.384;2023-03-01T07:06:32;24.92;;;12.65;;
3257;SDS011;1641;51.306;12.384;2023-03-01T07:08:57;25.15;;;14.10;;
3257;SDS011;1641;51.306;12.384;2023-03-01T07:11:23;25.67;;;14.25;;
3257;SDS011;1641;51.306;12.384;2023-03-01T07:13:52;25.67;;;13.75;;
3257;SDS011;1641;51.306;12.384;2023-03-01T07:16:17;19.92;;;10.65;;
3257;SDS011;1641;51.306;12.384;2023-03-01T07:18:42;22.10;;;11.65;;
3257;SDS011;1641;51.306;12.384;2023-03-01T07:21:08;29.33;;;14.00;;
3257;SDS011;1641;51.306;12.384;2023-03-01T07:23:36;19.02;;;12.43;;
3257;SDS011;1641;51.306;12.384;2023-03-01T07:26:04;23.30;;;12.52;;
3257;SDS011;1641;51.306;12.384;2023-03-01T07:28:29;21.50;;;13.02;;
3257;SDS011;1641;51.306;12.384;2023-03-01T07:31:00;20.42;;;12.35;;
3257;SDS011;1641;51.306;12.384;2023-03-01T07:33:26;21.95;;;12.25;;
3257;SDS011;1641;51.306;12.384;2023-03-01T07:35:55;22.38;;;11.43;;
3257;SDS011;1641;51.306;12.384;2023-03-01T07:38:22;22.90;;;12.10;;
3257;SDS011;1641;51.306;12.384;2023-03-01T07:40:48;25.92;;;13.23;;
3257;SDS011;1641;51.306;12.384;2023-03-01T07:43:13;20.90;;;11.68;;
3257;SDS011;1641;51.306;12.384;2023-03-01T07:45:38;16.35;;;10.65;;
3257;SDS011;1641;51.306;12.384;2023-03-01T07:48:04;29.85;;;17.05;;
3257;SDS011;1641;51.306;12.384;2023-03-01T07:50:32;21.17;;;12.38;;
3257;SDS011;1641;51.306;12.384;2023-03-01T07:52:57;19.48;;;13.18;;
3257;SDS011;1641;51.306;12.384;2023-03-01T07:55:23;24.90;;;14.70;;
3257;SDS011;1641;51.306;12.384;2023-03-01T07:57:48;26.10;;;12.52;;
3257;SDS011;1641;51.306;12.384;2023-03-01T08:00:19;14.77;;;9.90;;
3257;SDS011;1641;51.306;12.384;2023-03-01T08:05:10;29.77;;;15.65;;
3257;SDS011;1641;51.306;12.384;2023-03-01T08:07:38;17.77;;;11.95;;
3257;SDS011;1641;51.306;12.384;2023-03-01T08:10:03;39.33;;;23.85;;
3257;SDS011;1641;51.306;12.384;2023-03-01T08:12:32;33.17;;;19.58;;
3257;SDS011;1641;51.306;12.384;2023-03-01T08:14:57;18.13;;;11.85;;
3257;SDS011;1641;51.306;12.384;2023-03-01T08:17:22;19.73;;;12.68;;
3257;SDS011;1641;51.306;12.384;2023-03-01T08:19:48;18.13;;;11.60;;
3257;SDS011;1641;51.306;12.384;2023-03-01T08:22:13;16.20;;;11.38;;
3257;SDS011;1641;51.306;12.384;2023-03-01T08:24:38;20.25;;;12.40;;
3257;SDS011;1641;51.306;12.384;2023-03-01T08:27:04;20.98;;;12.57;;
3257;SDS011;1641;51.306;12.384;2023-03-01T08:29:33;19.23;;;10.27;;
3257;SDS011;1641;51.306;12.384;2023-03-01T08:31:58;16.05;;;10.98;;
3257;SDS011;1641;51.306;12.384;2023-03-01T08:34:24;19.50;;;11.68;;
3257;SDS011;1641;51.306;12.384;2023-03-01T08:36:50;17.98;;;11.10;;
3257;SDS011;1641;51.306;12.384;2023-03-01T08:39:17;18.38;;;12.07;;
3257;SDS011;1641;51.306;12.384;2023-03-01T08:41:45;20.38;;;11.65;;
3257;SDS011;1641;51.306;12.384;2023-03-01T08:44:11;18.30;;;12.45;;
3257;SDS011;1641;51.306;12.384;2023-03-01T08:46:38;18.33;;;11.73;;
3257;SDS011;1641;51.306;12.384;2023-03-01T08:49:06;19.00;;;12.68;;
3257;SDS011;1641;51.306;12.384;2023-03-01T08:51:33;19.90;;;11.15;;
3257;SDS011;1641;51.306;12.384;2023-03-01T08:54:20;18.83;;;11.82;;
3257;SDS011;1641;51.306;12.384;2023-03-01T08:56:46;20.10;;;11.77;;
3257;SDS011;1641;51.306;12.384;2023-03-01T08:59:12;19.33;;;12.60;;
3257;SDS011;1641;51.306;12.384;2023-03-01T09:01:38;17.20;;;11.00;;
3257;SDS011;1641;51.306;12.384;2023-03-01T09:04:05;21.67;;;12.43;;
3257;SDS011;1641;51.306;12.384;2023-03-01T09:06:31;34.63;;;17.60;;
3257;SDS011;1641;51.306;12.384;2023-03-01T09:09:01;21.90;;;13.15;;
3257;SDS011;1641;51.306;12.384;2023-03-01T09:11:28;22.90;;;12.38;;
3257;SDS011;1641;51.306;12.384;2023-03-01T09:13:53;21.05;;;12.10;;
3257;SDS011;1641;51.306;12.384;2023-03-01T09:16:22;18.85;;;10.27;;
3257;SDS011;1641;51.306;12.384;2023-03-01T09:18:51;21.00;;;11.45;;
3257;SDS011;1641;51.306;12.384;2023-03-01T09:21:19;24.15;;;12.10;;
3257;SDS011;1641;51.306;12.384;2023-03-01T09:23:46;14.85;;;10.82;;
3257;SDS011;1641;51.306;12.384;2023-03-01T09:26:16;20.50;;;13.50;;
3257;SDS011;1641;51.306;12.384;2023-03-01T09:28:51;16.63;;;12.00;;
3257;SDS011;1641;51.306;12.384;2023-03-01T09:31:18;19.63;;;12.80;;
3257;SDS011;1641;51.306;12.384;2023-03-01T09:33:52;12.57;;;8.20;;
3257;SDS011;1641;51.306;12.384;2023-03-01T09:36:20;24.33;;;12.77;;
3257;SDS011;1641;51.306;12.384;2023-03-01T09:38:47;22.42;;;12.80;;
3257;SDS011;1641;51.306;12.384;2023-03-01T09:46:46;17.60;;;8.27;;
3257;SDS011;1641;51.306;12.384;2023-03-01T09:49:17;16.63;;;10.13;;
3257;SDS011;1641;51.306;12.384;2023-03-01T09:51:56;22.02;;;12.68;;
3257;SDS011;1641;51.306;12.384;2023-03-01T09:54:31;20.75;;;12.75;;
3257;SDS011;1641;51.306;12.384;2023-03-01T09:57:09;19.45;;;11.32;;
3257;SDS011;1641;51.306;12.384;2023-03-01T09:59:49;23.00;;;12.00;;
3257;SDS011;1641;51.306;12.384;2023-03-01T10:04:54;43.38;;;19.92;;
3257;SDS011;1641;51.306;12.384;2023-03-01T10:10:16;23.77;;;12.68;;
3257;SDS011;1641;51.306;12.384;2023-03-01T10:12:51;19.77;;;9.70;;
3257;SDS011;1641;51.306;12.384;2023-03-01T10:15:18;19.13;;;10.43;;
3257;SDS011;1641;51.306;12.384;2023-03-01T10:17:55;29.50;;;15.68;;
3257;SDS011;1641;51.306;12.384;2023-03-01T10:20:26;23.05;;;12.32;;
3257;SDS011;1641;51.306;12.384;2023-03-01T10:23:08;16.35;;;9.27;;
3257;SDS011;1641;51.306;12.384;2023-03-01T10:30:54;19.25;;;11.43;;
3257;SDS011;1641;51.306;12.384;2023-03-01T10:33:21;24.35;;;13.65;;
3257;SDS011;1641;51.306;12.384;2023-03-01T10:35:49;17.95;;;10.55;;
3257;SDS011;1641;51.306;12.384;2023-03-01T10:38:15;22.63;;;12.32;;
3257;SDS011;1641;51.306;12.384;2023-03-01T10:40:52;21.73;;;7.25;;
3257;SDS011;1641;51.306;12.384;2023-03-01T10:43:22;18.30;;;10.25;;
3257;SDS011;1641;51.306;12.384;2023-03-01T10:45:49;24.45;;;12.52;;
3257;SDS011;1641;51.306;12.384;2023-03-01T10:48:15;19.67;;;9.65;;
3257;SDS011;1641;51.306;12.384;2023-03-01T10:50:49;21.98;;;10.13;;
3257;SDS011;1641;51.306;12.384;2023-03-01T10:56:10;24.10;;;12.05;;
3257;SDS011;1641;51.306;12.384;2023-03-01T10:58:41;14.18;;;8.52;;
3257;SDS011;1641;51.306;12.384;2023-03-01T11:03:55;11.95;;;7.35;;
3257;SDS011;1641;51.306;12.384;2023-03-01T11:06:39;13.32;;;8.25;;
3257;SDS011;1641;51.306;12.384;2023-03-01T11:09:13;17.42;;;8.00;;
3257;SDS011;1641;51.306;12.384;2023-03-01T11:11:38;21.08;;;11.45;;
3257;SDS011;1641;51.306;12.384;2023-03-01T11:14:15;19.60;;;10.68;;
3257;SDS011;1641;51.306;12.384;2023-03-01T11:16:43;29.40;;;11.00;;
3257;SDS011;1641;51.306;12.384;2023-03-01T11:24:09;16.40;;;8.43;;
3257;SDS011;1641;51.306;12.384;2023-03-01T11:26:42;19.70;;;10.95;;
3257;SDS011;1641;51.306;12.384;2023-03-01T11:29:30;23.50;;;11.60;;
3257;SDS011;1641;51.306;12.384;2023-03-01T11:32:01;16.70;;;10.73;;
3257;SDS011;1641;51.306;12.384;2023-03-01T11:34:38;15.95;;;9.45;;
3257;SDS011;1641;51.306;12.384;2023-03-01T11:37:10;23.30;;;12.13;;
3257;SDS011;1641;51.306;12.384;2023-03-01T11:39:46;18.75;;;11.40;;
3257;SDS011;1641;51.306;12.384;2023-03-01T11:42:20;22.80;;;12.52;;
3257;SDS011;1641;51.306;12.384;2023-03-01T11:44:54;25.33;;;12.85;;
3257;SDS011;1641;51.306;12.384;2023-03-01T11:47:35;14.98;;;9.90;;
3257;SDS011;1641;51.306;12.384;2023-03-01T11:55:30;16.73;;;10.18;;
3257;SDS011;1641;51.306;12.384;2023-03-01T11:58:36;18.27;;;12.10;;
3257;SDS011;1641;51.306;12.384;2023-03-01T12:04:08;19.50;;;9.30;;
3257;SDS011;1641;51.306;12.384;2023-03-01T12:10:01;25.90;;;10.10;;
3257;SDS011;1641;51.306;12.384;2023-03-01T12:12:54;25.00;;;13.55;;
3257;SDS011;1641;51.306;12.384;2023-03-01T12:15:48;20.08;;;11.73;;
3257;SDS011;1641;51.306;12.384;2023-03-01T12:19:01;12.57;;;7.93;;
3257;SDS011;1641;51.306;12.384;2023-03-01T12:21:39;18.45;;;11.35;;
3257;SDS011;1641;51.306;12.384;2023-03-01T12:27:33;13.88;;;7.18;;
3257;SDS011;1641;51.306;12.384;2023-03-01T12:33:10;18.58;;;10.23;;
3257;SDS011;1641;51.306;12.384;2023-03-01T12:41:50;15.63;;;7.95;;
3257;SDS011;1641;51.306;12.384;2023-03-01T12:44:35;17.15;;;7.50;;
3257;SDS011;1641;51.306;12.384;2023-03-01T12:47:40;20.50;;;11.43;;
3257;SDS011;1641;51.306;12.384;2023-03-01T12:50:37;15.32;;;9.60;;
3257;SDS011;1641;51.306;12.384;2023-03-01T12:53:07;14.43;;;8.32;;
3257;SDS011;1641;51.306;12.384;2023-03-01T12:56:01;16.52;;;10.82;;
3257;SDS011;1641;51.306;12.384;2023-03-01T12:58:32;9.85;;;5.93;;
3257;SDS011;1641;51.306;12.384;2023-03-01T13:06:47;15.82;;;9.25;;
3257;SDS011;1641;51.306;12.384;2023-03-01T13:09:35;14.35;;;8.40;;
3257;SDS011;1641;51.306;12.384;2023-03-01T13:18:33;9.38;;;6.22;;
3257;SDS011;1641;51.306;12.384;2023-03-01T13:23:10;17.30;;;10.73;;
3257;SDS011;1641;51.306;12.384;2023-03-01T13:30:56;14.23;;;9.60;;
3257;SDS011;1641;51.306;12.384;2023-03-01T13:35:53;14.50;;;9.05;;
3257;SDS011;1641;51.306;12.384;2023-03-01T13:49:53;11.07;;;6.97;;
3257;SDS011;1641;51.306;12.384;2023-03-01T13:55:16;20.05;;;10.38;;
3257;SDS011;1641;51.306;12.384;2023-03-01T13:57:45;15.27;;;9.73;;
3257;SDS011;1641;51.306;12.384;2023-03-01T14:03:24;13.57;;;6.93;;
3257;SDS011;1641;51.306;12.384;2023-03-01T14:08:42;15.50;;;9.30;;
3257;SDS011;1641;51.306;12.384;2023-03-01T14:14:16;17.67;;;9.30;;
3257;SDS011;1641;51.306;12.384;2023-03-01T14:17:03;14.23;;;8.32;;
3257;SDS011;1641;51.306;12.384;2023-03-01T14:19:40;20.48;;;10.88;;
3257;SDS011;1641;51.306;12.384;2023-03-01T14:22:15;15.63;;;8.25;;
3257;SDS011;1641;51.306;12.384;2023-03-01T14:24:49;9.77;;;5.60;;
3257;SDS011;1641;51.306;12.384;2023-03-01T14:27:15;13.40;;;8.75;;
3257;SDS011;1641;51.306;12.384;2023-03-01T14:29:41;17.23;;;8.98;;
3257;SDS011;1641;51.306;12.384;2023-03-01T14:32:39;9.70;;;6.82;;
3257;SDS011;1641;51.306;12.384;2023-03-01T14:34:58;11.00;;;6.40;;
3257;SDS011;1641;51.306;12.384;2023-03-01T14:37:25;12.57;;;7.88;;
3257;SDS011;1641;51.306;12.384;2023-03-01T14:39:53;14.70;;;8.82;;
3257;SDS011;1641;51.306;12.384;2023-03-01T14:42:19;16.25;;;5.57;;
3257;SDS011;1641;51.306;12.384;2023-03-01T14:44:48;16.23;;;7.00;;
3257;SDS011;1641;51.306;12.384;2023-03-01T14:47:20;13.95;;;6.30;;
3257;SDS011;1641;51.306;12.384;2023-03-01T14:49:53;9.40;;;5.13;;
3257;SDS011;1641;51.306;12.384;2023-03-01T14:52:24;13.80;;;7.75;;
3257;SDS011;1641;51.306;12.384;2023-03-01T14:54:56;11.00;;;6.18;;
3257;SDS011;1641;51.306;12.384;2023-03-01T14:57:22;11.93;;;6.10;;
3257;SDS011;1641;51.306;12.384;2023-03-01T14:59:50;13.40;;;8.23;;
3257;SDS011;1641;51.306;12.384;2023-03-01T15:02:19;13.93;;;7.75;;
3257;SDS011;1641;51.306;12.384;2023-03-01T15:04:48;11.55;;;5.15;;
3257;SDS011;1641;51.306;12.384;2023-03-01T15:07:16;14.75;;;7.38;;
3257;SDS011;1641;51.306;12.384;2023-03-01T15:09:42;11.65;;;4.95;;
3257;SDS011;1641;51.306;12.384;2023-03-01T15:14:57;15.63;;;7.55;;
3257;SDS011;1641;51.306;12.384;2023-03-01T15:17:33;13.23;;;6.20;;
3257;SDS011;1641;51.306;12.384;2023-03-01T15:20:04;11.13;;;5.30;;
3257;SDS011;1641;51.306;12.384;2023-03-01T15:22:32;9.38;;;5.93;;
3257;SDS011;1641;51.306;12.384;2023-03-01T15:24:58;12.02;;;7.00;;
3257;SDS011;1641;51.306;12.384;2023-03-01T15:27:24;9.30;;;6.53;;
3257;SDS011;1641;51.306;12.384;2023-03-01T15:29:58;8.30;;;5.00;;
3257;SDS011;1641;51.306;12.384;2023-03-01T15:34:53;10.85;;;6.40;;
3257;SDS011;1641;51.306;12.384;2023-03-01T15:37:37;12.60;;;6.13;;
3257;SDS011;1641;51.306;12.384;2023-03-01T15:42:49;9.45;;;5.40;;
3257;SDS011;1641;51.306;12.384;2023-03-01T15:47:49;10.43;;;5.75;;
3257;SDS011;1641;51.306;12.384;2023-03-01T15:52:51;8.55;;;5.43;;
3257;SDS011;1641;51.306;12.384;2023-03-01T15:55:20;8.13;;;5.43;;
3257;SDS011;1641;51.306;12.384;2023-03-01T15:57:48;11.43;;;6.30;;
3257;SDS011;1641;51.306;12.384;2023-03-01T16:00:15;9.38;;;6.07;;
3257;SDS011;1641;51.306;12.384;2023-03-01T16:02:42;14.70;;;6.78;;
3257;SDS011;1641;51.306;12.384;2023-03-01T16:05:19;10.20;;;6.50;;
3257;SDS011;1641;51.306;12.384;2023-03-01T16:07:47;12.63;;;5.50;;
3257;SDS011;1641;51.306;12.384;2023-03-01T16:10:13;8.65;;;6.10;;
3257;SDS011;1641;51.306;12.384;2023-03-01T16:12:38;10.73;;;6.45;;
3257;SDS011;1641;51.306;12.384;2023-03-01T16:15:04;11.73;;;6.93;;
3257;SDS011;1641;51.306;12.384;2023-03-01T16:17:38;11.10;;;6.40;;
3257;SDS011;1641;51.306;12.384;2023-03-01T16:20:03;11.48;;;6.10;;
3257;SDS011;1641;51.306;12.384;2023-03-01T16:22:29;9.55;;;5.93;;
3257;SDS011;1641;51.306;12.384;2023-03-01T16:24:55;12.15;;;6.20;;
3257;SDS011;1641;51.306;12.384;2023-03-01T16:27:23;11.27;;;5.82;;
3257;SDS011;1641;51.306;12.384;2023-03-01T16:29:48;10.15;;;6.72;;
3257;SDS011;1641;51.306;12.384;2023-03-01T16:32:13;12.15;;;7.55;;
3257;SDS011;1641;51.306;12.384;2023-03-01T16:34:39;14.38;;;7.53;;
3257;SDS011;1641;51.306;12.384;2023-03-01T16:37:04;12.77;;;6.82;;
3257;SDS011;1641;51.306;12.384;2023-03-01T16:39:29;12.32;;;6.38;;
3257;SDS011;1641;51.306;12.384;2023-03-01T16:41:57;11.38;;;7.30;;
3257;SDS011;1641;51.306;12.384;2023-03-01T16:44:25;8.80;;;5.13;;
3257;SDS011;1641;51.306;12.384;2023-03-01T16:46:50;10.13;;;6.72;;
3257;SDS011;1641;51.306;12.384;2023-03-01T16:49:15;9.13;;;6.30;;
3257;SDS011;1641;51.306;12.384;2023-03-01T16:51:41;16.10;;;7.75;;
3257;SDS011;1641;51.306;12.384;2023-03-01T16:54:06;10.43;;;6.63;;
3257;SDS011;1641;51.306;12.384;2023-03-01T16:56:32;11.38;;;6.50;;
3257;SDS011;1641;51.306;12.384;2023-03-01T16:58:59;12.30;;;6.80;;